createdAt,value
2019-02-07T00:00:21.551Z,26.65
2019-02-07T00:03:51.671Z,24.34
2019-02-07T00:07:22.772Z,25.19
2019-02-07T00:10:52.992Z,28.49
2019-02-07T00:14:23.282Z,28.75
2019-02-07T00:17:53.384Z,23.26
2019-02-07T00:21:23.564Z,29.38
2019-02-07T00:24:53.594Z,28.18
2019-02-07T00:28:23.705Z,28.51
2019-02-07T00:31:53.865Z,20
2019-02-07T00:35:24.035Z,26.26
2019-02-07T00:38:54.125Z,8.43
2019-02-07T00:42:24.196Z,23.61
2019-02-07T00:45:54.276Z,36.31
2019-02-07T00:49:24.476Z,31.91
2019-02-07T00:52:54.547Z,34.9
2019-02-07T00:56:25.087Z,27.49
2019-02-07T00:59:55.658Z,25.62
2019-02-07T01:03:25.838Z,26.26
2019-02-07T01:06:55.858Z,26.38
2019-02-07T01:10:26.419Z,24.86
2019-02-07T01:13:56.489Z,20.83
2019-02-07T01:17:26.770Z,23.36
2019-02-07T01:20:56.910Z,29.81
2019-02-07T01:24:27.210Z,24.25
2019-02-07T01:27:57.331Z,22.56
2019-02-07T01:31:27.551Z,21.52
2019-02-07T01:34:57.752Z,22.98
2019-02-07T01:38:28.013Z,21.86
2019-02-07T01:41:58.163Z,28.89
2019-02-07T01:45:28.373Z,19.89
2019-02-07T01:48:58.613Z,21.18
2019-02-07T01:52:28.824Z,21.51
2019-02-07T01:55:58.983Z,18.91
2019-02-07T01:59:29.195Z,22.93
2019-02-07T02:00:16.384Z,28.55
2019-02-07T02:03:46.595Z,19.07
2019-02-07T02:07:16.815Z,21.16
2019-02-07T02:10:48.247Z,23.65
2019-02-07T02:14:18.386Z,29.29
2019-02-07T02:17:49.169Z,30.32
2019-02-07T02:21:19.279Z,19.61
2019-02-07T02:24:49.767Z,10.54
2019-02-07T02:28:20.287Z,6.82
2019-02-07T02:31:50.488Z,24.73
2019-02-07T02:35:20.738Z,24.27
2019-02-07T02:38:50.824Z,30.04
2019-02-07T02:42:21.049Z,25.35
2019-02-07T02:45:51.153Z,25.9
2019-02-07T02:49:21.398Z,23.21
2019-02-07T02:52:51.614Z,25.73
2019-02-07T02:56:21.821Z,30.99
2019-02-07T02:59:51.923Z,24.36
2019-02-07T03:03:28.401Z,27.85
2019-02-07T03:07:38.092Z,23.59
2019-02-07T03:12:27.263Z,25.75
2019-02-07T03:28:59.286Z,23.96
2019-02-07T03:32:53.336Z,26.74
2019-02-07T03:36:36.325Z,30.95
2019-02-07T03:43:10.980Z,15.96
2019-02-07T03:52:01.382Z,21.02
2019-02-07T03:55:43.268Z,15.52
2019-02-07T03:59:21.617Z,20.3
2019-02-07T04:08:00.039Z,15.06
2019-02-07T04:16:41.103Z,18.54
2019-02-07T04:20:21.606Z,21.69
2019-02-07T04:24:18.080Z,21.9
2019-02-07T04:28:12.292Z,18.02
2019-02-07T04:31:53.030Z,18.52
2019-02-07T04:35:33.351Z,24.01
2019-02-07T04:41:38.337Z,20.94
2019-02-07T04:49:17.953Z,16.81
2019-02-07T04:55:29.260Z,20.64
2019-02-07T05:00:32.667Z,17.89
2019-02-07T05:04:12.356Z,18.3
2019-02-07T05:07:51.304Z,18.71
2019-02-07T05:11:59.673Z,15.12
2019-02-07T05:15:44.601Z,9.7
2019-02-07T05:23:20.206Z,18.56
2019-02-07T05:28:04.765Z,18
2019-02-07T05:31:48.868Z,16.57
2019-02-07T05:36:03.270Z,16.24
2019-02-07T05:39:50.904Z,14.96
2019-02-07T05:43:36.626Z,15.49
2019-02-07T05:47:19.555Z,18.06
2019-02-07T05:51:39.093Z,20.88
2019-02-07T05:55:20.451Z,15.3
2019-02-07T05:59:07.699Z,10.36
2019-02-07T06:00:40.540Z,18.05
2019-02-07T06:04:39.447Z,17.02
2019-02-07T06:08:21.875Z,12.94
2019-02-07T06:12:35.463Z,5.42
2019-02-07T06:16:31.642Z,17.54
2019-02-07T06:20:12.239Z,14.27
2019-02-07T06:23:55.778Z,12.03
2019-02-07T06:27:37.347Z,14.39
2019-02-07T06:32:21.958Z,12.91
2019-02-07T06:36:03.302Z,16.47
2019-02-07T06:39:49.327Z,20
2019-02-07T06:43:38.217Z,20.38
2019-02-07T06:48:20.046Z,20.7
2019-02-07T06:52:03.346Z,12.54
2019-02-07T06:55:55.545Z,13.49
2019-02-07T06:59:39.869Z,17.81
2019-02-07T07:04:24.557Z,15.03
2019-02-07T07:12:51.155Z,16.94
2019-02-07T07:18:00.667Z,17.89
2019-02-07T07:21:43.741Z,15.7
2019-02-07T07:25:32.749Z,17.79
2019-02-07T07:29:14.147Z,13.22
2019-02-07T07:33:01.365Z,14.13
2019-02-07T07:36:50.404Z,20.11
2019-02-07T07:40:33.884Z,15.55
2019-02-07T07:44:27.231Z,15.97
2019-02-07T07:51:01.128Z,13.53
2019-02-07T07:55:10.916Z,10.86
2019-02-07T07:58:55.183Z,12.85
2019-02-07T08:05:10.231Z,14
2019-02-07T08:11:10.528Z,16.71
2019-02-07T08:15:06.766Z,18.15
2019-02-07T08:21:29.383Z,17.89
2019-02-07T08:26:29.011Z,14.46
2019-02-07T08:30:13.410Z,15.6
2019-02-07T08:39:09.376Z,7.65
2019-02-07T08:42:52.174Z,18.32
2019-02-07T08:46:50.226Z,13.84
2019-02-07T08:50:32.411Z,6.75
2019-02-07T08:54:15.793Z,13.54
2019-02-07T09:01:17.466Z,14.97
2019-02-07T09:05:04.573Z,15.73
2019-02-07T09:10:17.190Z,12.07
2019-02-07T09:14:03.930Z,14.93
2019-02-07T09:17:48.415Z,9.09
2019-02-07T09:21:29.667Z,15.02
2019-02-07T09:25:09.274Z,15.66
2019-02-07T09:28:54.312Z,15.38
2019-02-07T09:37:17.007Z,5.55
2019-02-07T09:46:49.242Z,13.92
2019-02-07T09:50:37.286Z,9.43
2019-02-07T09:54:17.220Z,16.45
2019-02-07T09:57:54.009Z,15.19
2019-02-07T10:00:26.808Z,8.35
2019-02-07T10:04:21.275Z,25.99
2019-02-07T10:08:07.984Z,19.56
2019-02-07T10:12:10.892Z,11.72
2019-02-07T10:15:52.221Z,18.07
2019-02-07T10:19:36.918Z,16.1
2019-02-07T10:24:26.679Z,10.65
2019-02-07T10:28:39.617Z,6.43
2019-02-07T10:32:23.922Z,7.36
2019-02-07T10:39:44.371Z,20.73
2019-02-07T10:43:42.437Z,18.06
2019-02-07T10:47:24.775Z,20.05
2019-02-07T10:51:03.713Z,7.25
2019-02-07T10:56:19.720Z,16.21
2019-02-07T11:06:21.206Z,12.69
2019-02-07T11:10:09.575Z,16.48
2019-02-07T11:13:53.813Z,15.27
2019-02-07T11:17:35.546Z,16.01
2019-02-07T11:22:06.439Z,17.7
2019-02-07T11:25:56.527Z,11.51
2019-02-07T11:30:40.755Z,15.2
2019-02-07T11:34:26.387Z,16.55
2019-02-07T11:38:08.872Z,12.5
2019-02-07T11:41:50.642Z,20.49
2019-02-07T11:45:30.078Z,17.2
2019-02-07T11:49:11.357Z,15.34
2019-02-07T11:53:07.535Z,13.93
2019-02-07T11:56:46.704Z,15.46
2019-02-07T12:00:32.472Z,13.29
2019-02-07T12:04:12.251Z,15.29
2019-02-07T12:08:23.419Z,15.7
2019-02-07T12:13:06.326Z,14.76
2019-02-07T12:16:46.540Z,10.57
2019-02-07T12:23:37.102Z,13.14
2019-02-07T12:27:35.450Z,9.11
2019-02-07T12:31:14.768Z,16.26
2019-02-07T12:34:59.317Z,13.65
2019-02-07T12:39:23.663Z,9.85
2019-02-07T12:43:10.053Z,9.8
2019-02-07T12:49:44.460Z,14.24
2019-02-07T12:53:26.088Z,11.94
2019-02-07T12:57:06.897Z,16.51
2019-02-07T13:03:08.153Z,10.69
2019-02-07T13:09:16.591Z,11.85
2019-02-07T13:16:04.705Z,13.51
2019-02-07T13:19:46.812Z,11.71
2019-02-07T13:23:38.065Z,13.41
2019-02-07T13:27:17.946Z,10.69
2019-02-07T13:33:17.525Z,8.56
2019-02-07T13:37:11.265Z,11.17
2019-02-07T13:44:23.617Z,11.03
2019-02-07T13:48:04.321Z,8.93
2019-02-07T13:51:47.851Z,10.67
2019-02-07T13:55:28.253Z,10.18
2019-02-07T13:59:39.440Z,5.4
2019-02-07T14:00:23.771Z,7.75
2019-02-07T14:06:45.388Z,10.9
2019-02-07T14:12:44.235Z,14.01
2019-02-07T14:16:32.793Z,7.69
2019-02-07T14:20:25.009Z,14.75
2019-02-07T14:24:04.345Z,10.07
2019-02-07T14:27:45.515Z,5.3
2019-02-07T14:31:27.953Z,13.15
2019-02-07T14:37:36.319Z,7.86
2019-02-07T14:41:45.509Z,12.18
2019-02-07T14:45:39.719Z,11.41
2019-02-07T14:49:09.808Z,9.36
2019-02-07T14:52:39.968Z,12.2
2019-02-07T14:56:10.058Z,13.74
2019-02-07T14:59:40.278Z,10.81
2019-02-07T15:03:10.518Z,9.06
2019-02-07T15:06:40.738Z,9.11
2019-02-07T15:10:12.707Z,10.45
2019-02-07T15:13:42.867Z,11.21
2019-02-07T15:17:12.947Z,11.62
2019-02-07T15:20:43.137Z,10.64
2019-02-07T15:24:13.208Z,19.71
2019-02-07T15:27:43.396Z,13.69
2019-02-07T15:31:13.496Z,12.24
2019-02-07T15:34:43.637Z,15.33
2019-02-07T15:38:14.615Z,6.24
2019-02-07T15:41:45.316Z,10.75
2019-02-07T15:45:15.536Z,9.04
2019-02-07T15:48:45.775Z,9.59
2019-02-07T15:52:15.975Z,5.71
2019-02-07T15:55:46.236Z,11.45
2019-02-07T15:59:21.934Z,5.49
2019-02-07T16:00:37.354Z,12.48
2019-02-07T16:04:11.983Z,10.73
2019-02-07T16:07:42.388Z,6.99
2019-02-07T16:11:12.813Z,6.39
2019-02-07T16:14:42.972Z,11.52
2019-02-07T16:18:13.123Z,9.68
2019-02-07T16:21:43.292Z,6.95
2019-02-07T16:25:13.812Z,8.53
2019-02-07T16:28:43.932Z,12.35
2019-02-07T16:32:14.263Z,9.79
2019-02-07T16:35:44.351Z,4.19
2019-02-07T16:39:15.681Z,9.19
2019-02-07T16:42:45.821Z,4.89
2019-02-07T16:46:15.840Z,10.8
2019-02-07T16:49:46.031Z,13.36
2019-02-07T16:53:16.160Z,10.55
2019-02-07T16:56:46.310Z,10.15
2019-02-07T17:00:18.820Z,5.79
2019-02-07T17:03:48.858Z,7.79
2019-02-07T17:07:18.919Z,8.56
2019-02-07T17:10:49.038Z,9.88
2019-02-07T17:14:19.538Z,8.53
2019-02-07T17:17:49.848Z,7.55
2019-02-07T17:21:20.017Z,6.84
2019-02-07T17:24:50.128Z,8.51
2019-02-07T17:28:20.246Z,8.99
2019-02-07T17:31:50.266Z,6.36
2019-02-07T17:35:20.766Z,2.73
2019-02-07T17:38:50.956Z,6.74
2019-02-07T17:42:22.015Z,6.74
2019-02-07T17:45:52.175Z,10.44
2019-02-07T17:49:22.365Z,12.7
2019-02-07T17:52:52.612Z,6.79
2019-02-07T17:56:22.734Z,8.06
2019-02-07T17:59:52.904Z,5.7
2019-02-07T18:00:24.125Z,6.01
2019-02-07T18:03:54.154Z,5.59
2019-02-07T18:07:24.278Z,4.16
2019-02-07T18:10:54.435Z,8.19
2019-02-07T18:14:24.508Z,12.43
2019-02-07T18:17:54.563Z,13.38
2019-02-07T18:21:33.939Z,7.41
2019-02-07T18:25:05.212Z,5.66
2019-02-07T18:28:35.373Z,3.83
2019-02-07T18:32:05.531Z,12.66
2019-02-07T18:35:35.671Z,12.05
2019-02-07T18:39:07.916Z,7.05
2019-02-07T18:42:39.071Z,2.46
2019-02-07T18:46:09.181Z,8.14
2019-02-07T18:49:39.282Z,11.45
2019-02-07T18:53:09.394Z,6.81
2019-02-07T18:56:39.419Z,10.83
2019-02-07T19:00:13.469Z,10.4
2019-02-07T19:03:43.528Z,7.4
2019-02-07T19:07:13.805Z,8.03
2019-02-07T19:10:43.898Z,9.96
2019-02-07T19:14:14.098Z,7.05
2019-02-07T19:17:44.347Z,9.11
2019-02-07T19:21:14.537Z,7.67
2019-02-07T19:24:44.677Z,11.01
2019-02-07T19:28:14.846Z,8.61
2019-02-07T19:31:45.016Z,9.25
2019-02-07T19:35:15.306Z,11.39
2019-02-07T19:38:45.516Z,8.11
2019-02-07T19:42:15.765Z,7.72
2019-02-07T19:45:46.065Z,10.09
2019-02-07T19:49:16.295Z,10.89
2019-02-07T19:52:46.804Z,7.96
2019-02-07T19:56:16.881Z,9.61
2019-02-07T19:59:46.964Z,4.2
2019-02-07T20:00:25.464Z,9.5
2019-02-07T20:03:55.604Z,6.53
2019-02-07T20:07:25.714Z,10.3
2019-02-07T20:10:55.913Z,13.82
2019-02-07T20:14:26.083Z,3.26
2019-02-07T20:17:56.313Z,8.26
2019-02-07T20:21:26.552Z,10.8
2019-02-07T20:24:56.581Z,12.46
2019-02-07T20:28:26.715Z,10.38
2019-02-07T20:31:56.769Z,9.81
2019-02-07T20:35:27.000Z,17.49
2019-02-07T20:38:57.150Z,9.28
2019-02-07T20:42:27.203Z,10.46
2019-02-07T20:45:58.300Z,9.07
2019-02-07T20:49:28.360Z,6.72
2019-02-07T20:52:58.509Z,9.25
2019-02-07T20:56:28.669Z,15.04
2019-02-07T20:59:58.889Z,11.94
2019-02-07T21:03:28.960Z,15.06
2019-02-07T21:06:59.247Z,9.31
2019-02-07T21:10:30.437Z,7.29
2019-02-07T21:14:00.659Z,13.81
2019-02-07T21:17:30.863Z,11.45
2019-02-07T21:21:01.036Z,11.38
2019-02-07T21:24:31.347Z,9.38
2019-02-07T21:28:01.856Z,8.88
2019-02-07T21:31:32.265Z,12.84
2019-02-07T21:35:03.254Z,13.61
2019-02-07T21:38:33.324Z,14.19
2019-02-07T21:42:03.816Z,8.7
2019-02-07T21:45:33.977Z,17.41
2019-02-07T21:49:05.405Z,9.89
2019-02-07T21:52:41.821Z,10.8
2019-02-07T21:56:12.164Z,13.62
2019-02-07T21:59:42.263Z,8.75
2019-02-07T22:00:21.994Z,17.88
2019-02-07T22:03:52.412Z,10.76
2019-02-07T22:07:22.522Z,14.25
2019-02-07T22:10:52.661Z,19.2
2019-02-07T22:14:22.741Z,15.46
2019-02-07T22:17:52.861Z,14.16
2019-02-07T22:21:22.952Z,19.36
2019-02-07T22:24:53.169Z,17.82
2019-02-07T22:28:23.290Z,18.3
2019-02-07T22:31:53.462Z,17.21
2019-02-07T22:35:23.769Z,10.25
2019-02-07T22:38:54.008Z,16.44
2019-02-07T22:42:24.108Z,13.18
2019-02-07T22:45:54.178Z,14.24
2019-02-07T22:49:25.153Z,10.39
2019-02-07T22:52:56.937Z,10.6
2019-02-07T22:56:27.455Z,19.5
2019-02-07T22:59:57.487Z,9.81
2019-02-07T23:03:27.556Z,14.16
2019-02-07T23:06:57.607Z,9.6
2019-02-07T23:10:27.775Z,15.06
2019-02-07T23:13:58.075Z,20.94
2019-02-07T23:17:28.494Z,8.34
2019-02-07T23:20:59.044Z,14.2
2019-02-07T23:24:29.017Z,17.22
2019-02-07T23:27:59.455Z,5.94
2019-02-07T23:31:29.475Z,13.64
2019-02-07T23:34:59.512Z,14.18
2019-02-07T23:38:29.570Z,14.95
2019-02-07T23:41:59.848Z,8.07
2019-02-07T23:45:30.007Z,16.67
2019-02-07T23:49:00.092Z,14.76
2019-02-07T23:52:31.082Z,10.1
2019-02-07T23:56:01.196Z,15.53
2019-02-07T23:59:31.281Z,9.77
